sensor_id;sensor_type;location;lat;lon;timestamp;temperature;humidity
11666;DHT22;5889;51.350;6.708;2023-12-20T00:01:47;7.80;99.90
11666;DHT22;5889;51.350;6.708;2023-12-20T00:04:15;7.80;99.90
11666;DHT22;5889;51.350;6.708;2023-12-20T00:06:42;7.80;99.90
11666;DHT22;5889;51.350;6.708;2023-12-20T00:09:09;7.70;99.90
11666;DHT22;5889;51.350;6.708;2023-12-20T00:11:36;7.70;99.90
11666;DHT22;5889;51.350;6.708;2023-12-20T00:14:03;7.60;99.90
11666;DHT22;5889;51.350;6.708;2023-12-20T00:16:31;7.60;99.90
11666;DHT22;5889;51.350;6.708;2023-12-20T00:18:58;7.50;99.90
11666;DHT22;5889;51.350;6.708;2023-12-20T00:21:25;7.50;99.90
11666;DHT22;5889;51.350;6.708;2023-12-20T00:23:52;7.40;99.90
11666;DHT22;5889;51.350;6.708;2023-12-20T00:26:19;7.40;99.90
11666;DHT22;5889;51.350;6.708;2023-12-20T00:28:46;7.40;99.90
11666;DHT22;5889;51.350;6.708;2023-12-20T00:31:13;7.30;99.90
11666;DHT22;5889;51.350;6.708;2023-12-20T00:33:41;7.30;99.90
11666;DHT22;5889;51.350;6.708;2023-12-20T00:36:09;7.30;99.90
11666;DHT22;5889;51.350;6.708;2023-12-20T00:38:36;7.30;99.90
11666;DHT22;5889;51.350;6.708;2023-12-20T00:41:03;7.30;99.90
11666;DHT22;5889;51.350;6.708;2023-12-20T00:43:30;7.20;99.90
11666;DHT22;5889;51.350;6.708;2023-12-20T00:45:57;7.30;99.90
11666;DHT22;5889;51.350;6.708;2023-12-20T00:48:25;7.30;99.90
11666;DHT22;5889;51.350;6.708;2023-12-20T00:51:00;7.30;99.90
11666;DHT22;5889;51.350;6.708;2023-12-20T00:53:27;7.30;99.90
11666;DHT22;5889;51.350;6.708;2023-12-20T00:55:54;7.30;99.90
11666;DHT22;5889;51.350;6.708;2023-12-20T00:58:21;7.30;99.90
11666;DHT22;5889;51.350;6.708;2023-12-20T01:00:48;7.40;99.90
11666;DHT22;5889;51.350;6.708;2023-12-20T01:03:15;7.30;99.90
11666;DHT22;5889;51.350;6.708;2023-12-20T01:05:42;7.30;99.90
11666;DHT22;5889;51.350;6.708;2023-12-20T01:08:10;7.30;99.90
11666;DHT22;5889;51.350;6.708;2023-12-20T01:10:38;7.30;99.90
11666;DHT22;5889;51.350;6.708;2023-12-20T01:13:06;7.30;99.90
11666;DHT22;5889;51.350;6.708;2023-12-20T01:15:34;7.20;99.90
11666;DHT22;5889;51.350;6.708;2023-12-20T01:18:01;7.20;99.90
11666;DHT22;5889;51.350;6.708;2023-12-20T01:20:28;7.30;99.90
11666;DHT22;5889;51.350;6.708;2023-12-20T01:22:55;7.30;99.90
11666;DHT22;5889;51.350;6.708;2023-12-20T01:25:24;7.30;99.90
11666;DHT22;5889;51.350;6.708;2023-12-20T01:27:51;7.30;99.90
11666;DHT22;5889;51.350;6.708;2023-12-20T01:30:18;7.30;99.90
11666;DHT22;5889;51.350;6.708;2023-12-20T01:32:45;7.20;99.90
11666;DHT22;5889;51.350;6.708;2023-12-20T01:35:12;7.20;99.90
11666;DHT22;5889;51.350;6.708;2023-12-20T01:37:39;7.10;99.90
11666;DHT22;5889;51.350;6.708;2023-12-20T01:40:07;7.00;99.90
11666;DHT22;5889;51.350;6.708;2023-12-20T01:42:35;6.90;99.90
11666;DHT22;5889;51.350;6.708;2023-12-20T01:45:03;6.90;99.90
11666;DHT22;5889;51.350;6.708;2023-12-20T01:47:30;6.80;99.90
11666;DHT22;5889;51.350;6.708;2023-12-20T01:49:58;6.80;99.90
11666;DHT22;5889;51.350;6.708;2023-12-20T01:52:26;6.80;99.90
11666;DHT22;5889;51.350;6.708;2023-12-20T01:54:54;6.90;99.90
11666;DHT22;5889;51.350;6.708;2023-12-20T01:57:26;6.80;99.90
11666;DHT22;5889;51.350;6.708;2023-12-20T01:59:55;6.80;99.90
11666;DHT22;5889;51.350;6.708;2023-12-20T02:02:23;6.80;99.90
11666;DHT22;5889;51.350;6.708;2023-12-20T02:04:50;6.70;99.90
11666;DHT22;5889;51.350;6.708;2023-12-20T02:07:18;6.70;99.90
11666;DHT22;5889;51.350;6.708;2023-12-20T02:09:46;6.70;99.90
11666;DHT22;5889;51.350;6.708;2023-12-20T02:12:13;6.70;99.90
11666;DHT22;5889;51.350;6.708;2023-12-20T02:14:40;6.70;99.90
11666;DHT22;5889;51.350;6.708;2023-12-20T02:17:09;6.70;99.90
11666;DHT22;5889;51.350;6.708;2023-12-20T02:19:36;6.70;99.90
11666;DHT22;5889;51.350;6.708;2023-12-20T02:22:10;6.70;99.90
11666;DHT22;5889;51.350;6.708;2023-12-20T02:24:38;6.60;99.90
11666;DHT22;5889;51.350;6.708;2023-12-20T02:27:06;6.70;99.90
11666;DHT22;5889;51.350;6.708;2023-12-20T02:29:34;6.70;99.90
11666;DHT22;5889;51.350;6.708;2023-12-20T02:32:02;6.70;99.90
11666;DHT22;5889;51.350;6.708;2023-12-20T02:34:29;6.70;99.90
11666;DHT22;5889;51.350;6.708;2023-12-20T02:36:56;6.70;99.90
11666;DHT22;5889;51.350;6.708;2023-12-20T02:39:25;6.60;99.90
11666;DHT22;5889;51.350;6.708;2023-12-20T02:41:52;6.60;99.90
11666;DHT22;5889;51.350;6.708;2023-12-20T02:44:19;6.60;99.90
11666;DHT22;5889;51.350;6.708;2023-12-20T02:46:46;6.50;99.90
11666;DHT22;5889;51.350;6.708;2023-12-20T02:49:13;6.50;99.90
11666;DHT22;5889;51.350;6.708;2023-12-20T02:51:40;6.50;99.90
11666;DHT22;5889;51.350;6.708;2023-12-20T02:54:07;6.40;99.90
11666;DHT22;5889;51.350;6.708;2023-12-20T02:56:35;6.40;99.90
11666;DHT22;5889;51.350;6.708;2023-12-20T02:59:02;6.40;99.90
11666;DHT22;5889;51.350;6.708;2023-12-20T03:01:31;6.40;99.90
11666;DHT22;5889;51.350;6.708;2023-12-20T03:03:58;6.30;99.90
11666;DHT22;5889;51.350;6.708;2023-12-20T03:06:25;6.30;99.90
11666;DHT22;5889;51.350;6.708;2023-12-20T03:08:52;6.40;99.90
11666;DHT22;5889;51.350;6.708;2023-12-20T03:11:19;6.30;99.90
11666;DHT22;5889;51.350;6.708;2023-12-20T03:13:47;6.30;99.90
11666;DHT22;5889;51.350;6.708;2023-12-20T03:16:14;6.30;99.90
11666;DHT22;5889;51.350;6.708;2023-12-20T03:18:42;6.40;99.90
11666;DHT22;5889;51.350;6.708;2023-12-20T03:21:09;6.40;99.90
11666;DHT22;5889;51.350;6.708;2023-12-20T03:23:36;6.40;99.90
11666;DHT22;5889;51.350;6.708;2023-12-20T03:26:03;6.40;99.90
11666;DHT22;5889;51.350;6.708;2023-12-20T03:28:33;6.40;99.90
11666;DHT22;5889;51.350;6.708;2023-12-20T03:31:02;6.40;99.90
11666;DHT22;5889;51.350;6.708;2023-12-20T03:33:29;6.50;99.90
11666;DHT22;5889;51.350;6.708;2023-12-20T03:35:56;6.40;99.90
11666;DHT22;5889;51.350;6.708;2023-12-20T03:38:23;6.50;99.90
11666;DHT22;5889;51.350;6.708;2023-12-20T03:40:50;6.40;99.90
11666;DHT22;5889;51.350;6.708;2023-12-20T03:43:17;6.40;99.90
11666;DHT22;5889;51.350;6.708;2023-12-20T03:45:44;6.40;99.90
11666;DHT22;5889;51.350;6.708;2023-12-20T03:48:12;6.40;99.90
11666;DHT22;5889;51.350;6.708;2023-12-20T03:50:39;6.40;99.90
11666;DHT22;5889;51.350;6.708;2023-12-20T03:53:06;6.40;99.90
11666;DHT22;5889;51.350;6.708;2023-12-20T03:55:34;6.40;99.90
11666;DHT22;5889;51.350;6.708;2023-12-20T03:58:01;6.30;99.90
11666;DHT22;5889;51.350;6.708;2023-12-20T04:00:28;6.30;99.90
11666;DHT22;5889;51.350;6.708;2023-12-20T04:02:55;6.30;99.90
11666;DHT22;5889;51.350;6.708;2023-12-20T04:05:23;6.30;99.90
11666;DHT22;5889;51.350;6.708;2023-12-20T04:07:50;6.30;99.90
11666;DHT22;5889;51.350;6.708;2023-12-20T04:10:17;6.30;99.90
11666;DHT22;5889;51.350;6.708;2023-12-20T04:12:44;6.20;99.90
11666;DHT22;5889;51.350;6.708;2023-12-20T04:15:11;6.20;99.90
11666;DHT22;5889;51.350;6.708;2023-12-20T04:17:38;6.20;99.90
11666;DHT22;5889;51.350;6.708;2023-12-20T04:20:06;6.20;99.90
11666;DHT22;5889;51.350;6.708;2023-12-20T04:22:35;6.10;99.90
11666;DHT22;5889;51.350;6.708;2023-12-20T04:25:02;6.10;99.90
11666;DHT22;5889;51.350;6.708;2023-12-20T04:27:29;6.10;99.90
11666;DHT22;5889;51.350;6.708;2023-12-20T04:29:56;6.10;99.90
11666;DHT22;5889;51.350;6.708;2023-12-20T04:32:23;6.10;99.90
11666;DHT22;5889;51.350;6.708;2023-12-20T04:34:50;6.10;99.90
11666;DHT22;5889;51.350;6.708;2023-12-20T04:37:17;6.00;99.90
11666;DHT22;5889;51.350;6.708;2023-12-20T04:39:45;6.00;99.90
11666;DHT22;5889;51.350;6.708;2023-12-20T04:42:12;6.00;99.90
11666;DHT22;5889;51.350;6.708;2023-12-20T04:44:39;6.00;99.90
11666;DHT22;5889;51.350;6.708;2023-12-20T04:47:06;6.00;99.90
11666;DHT22;5889;51.350;6.708;2023-12-20T04:49:33;6.00;99.90
11666;DHT22;5889;51.350;6.708;2023-12-20T04:52:00;6.00;99.90
11666;DHT22;5889;51.350;6.708;2023-12-20T04:54:27;6.00;99.90
11666;DHT22;5889;51.350;6.708;2023-12-20T04:56:55;6.00;99.90
11666;DHT22;5889;51.350;6.708;2023-12-20T04:59:22;6.00;99.90
11666;DHT22;5889;51.350;6.708;2023-12-20T05:01:49;5.90;99.90
11666;DHT22;5889;51.350;6.708;2023-12-20T05:04:17;5.90;99.90
11666;DHT22;5889;51.350;6.708;2023-12-20T05:06:44;5.90;99.90
11666;DHT22;5889;51.350;6.708;2023-12-20T05:09:11;5.80;99.90
11666;DHT22;5889;51.350;6.708;2023-12-20T05:11:38;5.90;99.90
11666;DHT22;5889;51.350;6.708;2023-12-20T05:14:06;5.80;99.90
11666;DHT22;5889;51.350;6.708;2023-12-20T05:16:33;5.90;99.90
11666;DHT22;5889;51.350;6.708;2023-12-20T05:19:00;5.90;99.90
11666;DHT22;5889;51.350;6.708;2023-12-20T05:21:32;5.90;99.90
11666;DHT22;5889;51.350;6.708;2023-12-20T05:23:59;5.90;99.90
11666;DHT22;5889;51.350;6.708;2023-12-20T05:26:26;5.90;99.90
11666;DHT22;5889;51.350;6.708;2023-12-20T05:28:55;5.90;99.90
11666;DHT22;5889;51.350;6.708;2023-12-20T05:31:23;6.00;99.90
11666;DHT22;5889;51.350;6.708;2023-12-20T05:33:50;6.00;99.90
11666;DHT22;5889;51.350;6.708;2023-12-20T05:36:17;6.00;99.90
11666;DHT22;5889;51.350;6.708;2023-12-20T05:38:44;6.00;99.90
11666;DHT22;5889;51.350;6.708;2023-12-20T05:41:11;6.00;99.90
11666;DHT22;5889;51.350;6.708;2023-12-20T05:43:39;6.00;99.90
11666;DHT22;5889;51.350;6.708;2023-12-20T05:46:06;6.00;99.90
11666;DHT22;5889;51.350;6.708;2023-12-20T05:48:34;6.10;99.90
11666;DHT22;5889;51.350;6.708;2023-12-20T05:51:01;6.10;99.90
11666;DHT22;5889;51.350;6.708;2023-12-20T05:53:28;6.10;99.90
11666;DHT22;5889;51.350;6.708;2023-12-20T05:55:54;6.10;99.90
11666;DHT22;5889;51.350;6.708;2023-12-20T05:58:21;6.20;99.90
11666;DHT22;5889;51.350;6.708;2023-12-20T06:00:48;6.10;99.90
11666;DHT22;5889;51.350;6.708;2023-12-20T06:03:15;6.10;99.90
11666;DHT22;5889;51.350;6.708;2023-12-20T06:05:43;6.10;99.90
11666;DHT22;5889;51.350;6.708;2023-12-20T06:08:10;6.20;99.90
11666;DHT22;5889;51.350;6.708;2023-12-20T06:10:38;6.20;99.90
11666;DHT22;5889;51.350;6.708;2023-12-20T06:13:05;6.20;99.90
11666;DHT22;5889;51.350;6.708;2023-12-20T06:15:32;6.20;99.90
11666;DHT22;5889;51.350;6.708;2023-12-20T06:18:02;6.20;99.90
11666;DHT22;5889;51.350;6.708;2023-12-20T06:20:29;6.20;99.90
11666;DHT22;5889;51.350;6.708;2023-12-20T06:23:00;6.20;99.90
11666;DHT22;5889;51.350;6.708;2023-12-20T06:25:27;6.30;99.90
11666;DHT22;5889;51.350;6.708;2023-12-20T06:27:54;6.30;99.90
11666;DHT22;5889;51.350;6.708;2023-12-20T06:30:21;6.30;99.90
11666;DHT22;5889;51.350;6.708;2023-12-20T06:32:50;6.30;99.90
11666;DHT22;5889;51.350;6.708;2023-12-20T06:35:18;6.40;99.90
11666;DHT22;5889;51.350;6.708;2023-12-20T06:37:45;6.40;99.90
11666;DHT22;5889;51.350;6.708;2023-12-20T06:40:13;6.40;99.90
11666;DHT22;5889;51.350;6.708;2023-12-20T06:42:41;6.40;99.90
11666;DHT22;5889;51.350;6.708;2023-12-20T06:45:09;6.40;99.90
11666;DHT22;5889;51.350;6.708;2023-12-20T06:47:36;6.40;99.90
11666;DHT22;5889;51.350;6.708;2023-12-20T06:50:03;6.40;99.90
11666;DHT22;5889;51.350;6.708;2023-12-20T06:52:30;6.50;99.90
11666;DHT22;5889;51.350;6.708;2023-12-20T06:54:57;6.50;99.90
11666;DHT22;5889;51.350;6.708;2023-12-20T06:57:26;6.50;99.90
11666;DHT22;5889;51.350;6.708;2023-12-20T06:59:53;6.40;99.90
11666;DHT22;5889;51.350;6.708;2023-12-20T07:02:19;6.50;99.90
11666;DHT22;5889;51.350;6.708;2023-12-20T07:04:48;6.50;99.90
11666;DHT22;5889;51.350;6.708;2023-12-20T07:07:15;6.50;99.90
11666;DHT22;5889;51.350;6.708;2023-12-20T07:09:41;6.50;99.90
11666;DHT22;5889;51.350;6.708;2023-12-20T07:12:08;6.60;99.90
11666;DHT22;5889;51.350;6.708;2023-12-20T07:14:37;6.60;99.90
11666;DHT22;5889;51.350;6.708;2023-12-20T07:17:04;6.60;99.90
11666;DHT22;5889;51.350;6.708;2023-12-20T07:19:33;6.50;99.90
11666;DHT22;5889;51.350;6.708;2023-12-20T07:22:00;6.60;99.90
11666;DHT22;5889;51.350;6.708;2023-12-20T07:24:27;6.60;99.90
11666;DHT22;5889;51.350;6.708;2023-12-20T07:26:54;6.60;99.90
11666;DHT22;5889;51.350;6.708;2023-12-20T07:29:20;6.60;99.90
11666;DHT22;5889;51.350;6.708;2023-12-20T07:31:49;6.60;99.90
11666;DHT22;5889;51.350;6.708;2023-12-20T07:34:17;6.60;99.90
11666;DHT22;5889;51.350;6.708;2023-12-20T07:36:44;6.60;99.90
11666;DHT22;5889;51.350;6.708;2023-12-20T07:39:11;6.60;99.90
11666;DHT22;5889;51.350;6.708;2023-12-20T07:41:38;6.70;99.90
11666;DHT22;5889;51.350;6.708;2023-12-20T07:44:06;6.70;99.90
11666;DHT22;5889;51.350;6.708;2023-12-20T07:46:33;6.70;99.90
11666;DHT22;5889;51.350;6.708;2023-12-20T07:49:01;6.70;99.90
11666;DHT22;5889;51.350;6.708;2023-12-20T07:51:28;6.80;99.90
11666;DHT22;5889;51.350;6.708;2023-12-20T07:53:55;6.80;99.90
11666;DHT22;5889;51.350;6.708;2023-12-20T07:56:22;6.80;99.90
11666;DHT22;5889;51.350;6.708;2023-12-20T07:58:49;6.80;99.90
11666;DHT22;5889;51.350;6.708;2023-12-20T08:01:16;6.90;99.90
11666;DHT22;5889;51.350;6.708;2023-12-20T08:03:43;6.80;99.90
11666;DHT22;5889;51.350;6.708;2023-12-20T08:06:12;6.80;99.90
11666;DHT22;5889;51.350;6.708;2023-12-20T08:08:39;6.80;99.90
11666;DHT22;5889;51.350;6.708;2023-12-20T08:11:06;6.80;99.90
11666;DHT22;5889;51.350;6.708;2023-12-20T08:13:32;6.80;99.90
11666;DHT22;5889;51.350;6.708;2023-12-20T08:15:59;6.90;99.90
11666;DHT22;5889;51.350;6.708;2023-12-20T08:18:28;6.90;99.90
11666;DHT22;5889;51.350;6.708;2023-12-20T08:20:58;6.90;99.90
11666;DHT22;5889;51.350;6.708;2023-12-20T08:23:27;6.90;99.90
11666;DHT22;5889;51.350;6.708;2023-12-20T08:25:53;6.80;99.90
11666;DHT22;5889;51.350;6.708;2023-12-20T08:28:20;6.80;99.90
11666;DHT22;5889;51.350;6.708;2023-12-20T08:30:48;6.80;99.90
11666;DHT22;5889;51.350;6.708;2023-12-20T08:33:19;6.80;99.90
11666;DHT22;5889;51.350;6.708;2023-12-20T08:35:46;6.80;99.90
11666;DHT22;5889;51.350;6.708;2023-12-20T08:38:13;6.80;99.90
11666;DHT22;5889;51.350;6.708;2023-12-20T08:40:41;6.70;99.90
11666;DHT22;5889;51.350;6.708;2023-12-20T08:43:08;6.70;99.90
11666;DHT22;5889;51.350;6.708;2023-12-20T08:45:35;6.70;99.90
11666;DHT22;5889;51.350;6.708;2023-12-20T08:48:02;6.70;99.90
11666;DHT22;5889;51.350;6.708;2023-12-20T08:50:29;6.70;99.90
11666;DHT22;5889;51.350;6.708;2023-12-20T08:52:56;6.80;99.90
11666;DHT22;5889;51.350;6.708;2023-12-20T08:55:23;6.80;99.90
11666;DHT22;5889;51.350;6.708;2023-12-20T08:57:51;6.80;99.90
11666;DHT22;5889;51.350;6.708;2023-12-20T09:00:19;6.80;99.90
11666;DHT22;5889;51.350;6.708;2023-12-20T09:02:49;6.90;99.90
11666;DHT22;5889;51.350;6.708;2023-12-20T09:05:16;6.90;99.90
11666;DHT22;5889;51.350;6.708;2023-12-20T09:07:43;6.90;99.90
11666;DHT22;5889;51.350;6.708;2023-12-20T09:10:10;7.00;99.90
11666;DHT22;5889;51.350;6.708;2023-12-20T09:12:37;7.00;99.90
11666;DHT22;5889;51.350;6.708;2023-12-20T09:15:08;7.00;99.90
11666;DHT22;5889;51.350;6.708;2023-12-20T09:17:35;7.00;99.90
11666;DHT22;5889;51.350;6.708;2023-12-20T09:20:02;7.00;99.90
11666;DHT22;5889;51.350;6.708;2023-12-20T09:22:31;7.00;99.90
11666;DHT22;5889;51.350;6.708;2023-12-20T09:24:59;7.00;99.90
11666;DHT22;5889;51.350;6.708;2023-12-20T09:27:25;7.10;99.90
11666;DHT22;5889;51.350;6.708;2023-12-20T09:29:52;7.10;99.90
11666;DHT22;5889;51.350;6.708;2023-12-20T09:32:21;7.10;99.90
11666;DHT22;5889;51.350;6.708;2023-12-20T09:34:48;7.10;99.90
11666;DHT22;5889;51.350;6.708;2023-12-20T09:37:15;7.10;99.90
11666;DHT22;5889;51.350;6.708;2023-12-20T09:39:42;7.20;99.90
11666;DHT22;5889;51.350;6.708;2023-12-20T09:42:11;7.20;99.90
11666;DHT22;5889;51.350;6.708;2023-12-20T09:44:42;7.20;99.90
11666;DHT22;5889;51.350;6.708;2023-12-20T09:47:10;7.20;99.90
11666;DHT22;5889;51.350;6.708;2023-12-20T09:49:39;7.20;99.90
11666;DHT22;5889;51.350;6.708;2023-12-20T09:52:08;7.20;99.90
11666;DHT22;5889;51.350;6.708;2023-12-20T09:54:36;7.20;99.90
11666;DHT22;5889;51.350;6.708;2023-12-20T09:57:04;7.20;99.90
11666;DHT22;5889;51.350;6.708;2023-12-20T09:59:31;7.20;99.90
11666;DHT22;5889;51.350;6.708;2023-12-20T10:02:01;7.30;99.90
11666;DHT22;5889;51.350;6.708;2023-12-20T10:04:32;7.20;99.90
11666;DHT22;5889;51.350;6.708;2023-12-20T10:07:03;7.30;99.90
11666;DHT22;5889;51.350;6.708;2023-12-20T10:09:31;7.30;99.90
11666;DHT22;5889;51.350;6.708;2023-12-20T10:11:59;7.30;99.90
11666;DHT22;5889;51.350;6.708;2023-12-20T10:14:26;7.30;99.90
11666;DHT22;5889;51.350;6.708;2023-12-20T10:16:52;7.30;99.90
11666;DHT22;5889;51.350;6.708;2023-12-20T10:19:21;7.40;99.90
11666;DHT22;5889;51.350;6.708;2023-12-20T10:21:48;7.40;99.90
11666;DHT22;5889;51.350;6.708;2023-12-20T10:24:18;7.40;99.90
11666;DHT22;5889;51.350;6.708;2023-12-20T10:26:47;7.30;99.90
11666;DHT22;5889;51.350;6.708;2023-12-20T10:29:14;7.30;99.90
11666;DHT22;5889;51.350;6.708;2023-12-20T10:31:42;7.40;99.90
11666;DHT22;5889;51.350;6.708;2023-12-20T10:34:13;7.40;99.90
11666;DHT22;5889;51.350;6.708;2023-12-20T10:36:39;7.40;99.90
11666;DHT22;5889;51.350;6.708;2023-12-20T10:39:09;7.40;99.90
11666;DHT22;5889;51.350;6.708;2023-12-20T10:41:40;7.40;99.90
11666;DHT22;5889;51.350;6.708;2023-12-20T10:44:10;7.40;99.90
11666;DHT22;5889;51.350;6.708;2023-12-20T10:46:41;7.50;99.90
11666;DHT22;5889;51.350;6.708;2023-12-20T10:49:15;7.50;99.90
11666;DHT22;5889;51.350;6.708;2023-12-20T10:51:46;7.50;99.90
11666;DHT22;5889;51.350;6.708;2023-12-20T10:54:14;7.60;99.90
11666;DHT22;5889;51.350;6.708;2023-12-20T10:56:56;7.60;99.90
11666;DHT22;5889;51.350;6.708;2023-12-20T11:00:02;7.60;99.90
11666;DHT22;5889;51.350;6.708;2023-12-20T11:02:39;7.60;99.90
11666;DHT22;5889;51.350;6.708;2023-12-20T11:05:18;7.60;99.90
11666;DHT22;5889;51.350;6.708;2023-12-20T11:07:50;7.50;99.90
11666;DHT22;5889;51.350;6.708;2023-12-20T11:10:23;7.50;99.90
11666;DHT22;5889;51.350;6.708;2023-12-20T11:12:58;7.50;99.90
11666;DHT22;5889;51.350;6.708;2023-12-20T11:15:28;7.50;99.90
11666;DHT22;5889;51.350;6.708;2023-12-20T11:17:56;7.50;99.90
11666;DHT22;5889;51.350;6.708;2023-12-20T11:20:23;7.50;99.90
11666;DHT22;5889;51.350;6.708;2023-12-20T11:22:54;7.50;99.90
11666;DHT22;5889;51.350;6.708;2023-12-20T11:25:21;7.60;99.90
11666;DHT22;5889;51.350;6.708;2023-12-20T11:28:09;7.60;99.90
11666;DHT22;5889;51.350;6.708;2023-12-20T11:30:43;7.70;99.90
11666;DHT22;5889;51.350;6.708;2023-12-20T11:36:41;7.80;99.90
11666;DHT22;5889;51.350;6.708;2023-12-20T11:39:09;7.80;99.90
11666;DHT22;5889;51.350;6.708;2023-12-20T11:41:37;7.90;99.90
11666;DHT22;5889;51.350;6.708;2023-12-20T11:44:19;7.90;99.90
11666;DHT22;5889;51.350;6.708;2023-12-20T11:49:24;7.90;99.90
11666;DHT22;5889;51.350;6.708;2023-12-20T11:51:51;7.90;99.90
11666;DHT22;5889;51.350;6.708;2023-12-20T11:54:18;7.90;99.90
11666;DHT22;5889;51.350;6.708;2023-12-20T11:56:46;7.90;99.90
11666;DHT22;5889;51.350;6.708;2023-12-20T11:59:15;7.90;99.90
11666;DHT22;5889;51.350;6.708;2023-12-20T12:01:48;7.90;99.90
11666;DHT22;5889;51.350;6.708;2023-12-20T12:04:15;7.90;99.90
11666;DHT22;5889;51.350;6.708;2023-12-20T12:06:43;7.90;99.90
11666;DHT22;5889;51.350;6.708;2023-12-20T12:09:11;7.90;99.90
11666;DHT22;5889;51.350;6.708;2023-12-20T12:11:38;7.90;99.90
11666;DHT22;5889;51.350;6.708;2023-12-20T12:14:05;7.90;99.90
11666;DHT22;5889;51.350;6.708;2023-12-20T12:16:33;7.90;99.90
11666;DHT22;5889;51.350;6.708;2023-12-20T12:19:00;7.80;99.90
11666;DHT22;5889;51.350;6.708;2023-12-20T12:21:27;7.80;99.90
11666;DHT22;5889;51.350;6.708;2023-12-20T12:24:06;7.80;99.90
11666;DHT22;5889;51.350;6.708;2023-12-20T12:26:33;7.80;99.90
11666;DHT22;5889;51.350;6.708;2023-12-20T12:29:00;7.80;99.90
11666;DHT22;5889;51.350;6.708;2023-12-20T12:31:27;7.70;99.90
11666;DHT22;5889;51.350;6.708;2023-12-20T12:33:56;7.70;99.90
11666;DHT22;5889;51.350;6.708;2023-12-20T12:36:23;7.70;99.90
11666;DHT22;5889;51.350;6.708;2023-12-20T12:38:50;7.80;99.90
11666;DHT22;5889;51.350;6.708;2023-12-20T12:41:16;7.70;99.90
11666;DHT22;5889;51.350;6.708;2023-12-20T12:43:44;7.80;99.90
11666;DHT22;5889;51.350;6.708;2023-12-20T12:46:11;7.80;99.90
11666;DHT22;5889;51.350;6.708;2023-12-20T12:48:38;7.80;99.90
11666;DHT22;5889;51.350;6.708;2023-12-20T12:51:06;7.80;99.90
11666;DHT22;5889;51.350;6.708;2023-12-20T12:53:38;7.80;99.90
11666;DHT22;5889;51.350;6.708;2023-12-20T12:56:05;7.80;99.90
11666;DHT22;5889;51.350;6.708;2023-12-20T12:58:32;7.80;99.90
11666;DHT22;5889;51.350;6.708;2023-12-20T13:00:59;7.80;99.90
11666;DHT22;5889;51.350;6.708;2023-12-20T13:03:26;7.80;99.90
11666;DHT22;5889;51.350;6.708;2023-12-20T13:05:53;7.70;99.90
11666;DHT22;5889;51.350;6.708;2023-12-20T13:08:22;7.70;99.90
11666;DHT22;5889;51.350;6.708;2023-12-20T13:10:49;7.70;99.90
11666;DHT22;5889;51.350;6.708;2023-12-20T13:13:16;7.60;99.90
11666;DHT22;5889;51.350;6.708;2023-12-20T13:15:43;7.60;99.90
11666;DHT22;5889;51.350;6.708;2023-12-20T13:18:16;7.60;99.90
11666;DHT22;5889;51.350;6.708;2023-12-20T13:20:43;7.60;99.90
11666;DHT22;5889;51.350;6.708;2023-12-20T13:23:10;7.60;99.90
11666;DHT22;5889;51.350;6.708;2023-12-20T13:25:42;7.60;99.90
11666;DHT22;5889;51.350;6.708;2023-12-20T13:28:10;7.60;99.90
11666;DHT22;5889;51.350;6.708;2023-12-20T13:30:37;7.50;99.90
11666;DHT22;5889;51.350;6.708;2023-12-20T13:33:05;7.50;99.90
11666;DHT22;5889;51.350;6.708;2023-12-20T13:35:32;7.60;99.90
11666;DHT22;5889;51.350;6.708;2023-12-20T13:37:59;7.50;99.90
11666;DHT22;5889;51.350;6.708;2023-12-20T13:40:26;7.50;99.90
11666;DHT22;5889;51.350;6.708;2023-12-20T13:42:55;7.50;99.90
11666;DHT22;5889;51.350;6.708;2023-12-20T13:45:22;7.50;99.90
11666;DHT22;5889;51.350;6.708;2023-12-20T13:47:51;7.60;99.90
11666;DHT22;5889;51.350;6.708;2023-12-20T13:50:18;7.60;99.90
11666;DHT22;5889;51.350;6.708;2023-12-20T13:52:45;7.50;99.90
11666;DHT22;5889;51.350;6.708;2023-12-20T13:55:12;7.50;99.90
11666;DHT22;5889;51.350;6.708;2023-12-20T13:57:39;7.50;99.90
11666;DHT22;5889;51.350;6.708;2023-12-20T14:00:09;7.60;99.90
11666;DHT22;5889;51.350;6.708;2023-12-20T14:02:40;7.50;99.90
11666;DHT22;5889;51.350;6.708;2023-12-20T14:05:08;7.50;99.90
11666;DHT22;5889;51.350;6.708;2023-12-20T14:07:35;7.50;99.90
11666;DHT22;5889;51.350;6.708;2023-12-20T14:10:03;7.50;99.90
11666;DHT22;5889;51.350;6.708;2023-12-20T14:12:31;7.50;99.90
11666;DHT22;5889;51.350;6.708;2023-12-20T14:18:06;7.60;99.90
11666;DHT22;5889;51.350;6.708;2023-12-20T14:20:35;7.60;99.90
11666;DHT22;5889;51.350;6.708;2023-12-20T14:23:01;7.60;99.90
11666;DHT22;5889;51.350;6.708;2023-12-20T14:25:28;7.60;99.90
11666;DHT22;5889;51.350;6.708;2023-12-20T14:27:59;7.60;99.90
11666;DHT22;5889;51.350;6.708;2023-12-20T14:30:26;7.60;99.90
11666;DHT22;5889;51.350;6.708;2023-12-20T14:33:00;7.70;99.90
11666;DHT22;5889;51.350;6.708;2023-12-20T14:35:37;7.70;99.90
11666;DHT22;5889;51.350;6.708;2023-12-20T14:38:11;7.70;99.90
11666;DHT22;5889;51.350;6.708;2023-12-20T14:40:42;7.70;99.90
11666;DHT22;5889;51.350;6.708;2023-12-20T14:43:09;7.70;99.90
11666;DHT22;5889;51.350;6.708;2023-12-20T14:45:37;7.70;99.90
11666;DHT22;5889;51.350;6.708;2023-12-20T14:48:05;7.70;99.90
11666;DHT22;5889;51.350;6.708;2023-12-20T14:50:33;7.70;99.90
11666;DHT22;5889;51.350;6.708;2023-12-20T14:53:02;7.80;99.90
11666;DHT22;5889;51.350;6.708;2023-12-20T14:55:33;7.80;99.90
11666;DHT22;5889;51.350;6.708;2023-12-20T14:58:03;7.80;99.90
11666;DHT22;5889;51.350;6.708;2023-12-20T15:00:30;7.80;99.90
11666;DHT22;5889;51.350;6.708;2023-12-20T15:02:57;7.80;99.90
11666;DHT22;5889;51.350;6.708;2023-12-20T15:05:51;7.80;99.90
11666;DHT22;5889;51.350;6.708;2023-12-20T15:08:19;7.90;99.90
11666;DHT22;5889;51.350;6.708;2023-12-20T15:10:50;7.90;99.90
11666;DHT22;5889;51.350;6.708;2023-12-20T15:13:17;7.90;99.90
11666;DHT22;5889;51.350;6.708;2023-12-20T15:15:44;7.90;99.90
11666;DHT22;5889;51.350;6.708;2023-12-20T15:18:11;7.90;99.90
11666;DHT22;5889;51.350;6.708;2023-12-20T15:20:39;7.90;99.90
11666;DHT22;5889;51.350;6.708;2023-12-20T15:23:28;7.90;99.90
11666;DHT22;5889;51.350;6.708;2023-12-20T15:25:59;7.90;99.90
11666;DHT22;5889;51.350;6.708;2023-12-20T15:29:11;7.90;99.90
11666;DHT22;5889;51.350;6.708;2023-12-20T15:31:49;7.90;99.90
11666;DHT22;5889;51.350;6.708;2023-12-20T15:34:47;7.90;99.90
11666;DHT22;5889;51.350;6.708;2023-12-20T15:37:16;7.90;99.90
11666;DHT22;5889;51.350;6.708;2023-12-20T15:40:01;7.90;99.90
11666;DHT22;5889;51.350;6.708;2023-12-20T15:42:46;7.90;99.90
11666;DHT22;5889;51.350;6.708;2023-12-20T15:45:14;7.90;99.90
11666;DHT22;5889;51.350;6.708;2023-12-20T15:47:47;7.90;99.90
11666;DHT22;5889;51.350;6.708;2023-12-20T15:50:54;7.90;99.90
11666;DHT22;5889;51.350;6.708;2023-12-20T15:53:57;7.90;99.90
11666;DHT22;5889;51.350;6.708;2023-12-20T15:56:36;7.80;99.90
11666;DHT22;5889;51.350;6.708;2023-12-20T15:59:04;7.80;99.90
11666;DHT22;5889;51.350;6.708;2023-12-20T16:01:42;7.80;99.90
11666;DHT22;5889;51.350;6.708;2023-12-20T16:04:12;7.80;99.90
11666;DHT22;5889;51.350;6.708;2023-12-20T16:07:24;7.80;99.90
11666;DHT22;5889;51.350;6.708;2023-12-20T16:10:09;7.80;99.90
11666;DHT22;5889;51.350;6.708;2023-12-20T16:15:45;7.80;99.90
11666;DHT22;5889;51.350;6.708;2023-12-20T16:23:25;7.90;99.90
11666;DHT22;5889;51.350;6.708;2023-12-20T16:24:15;7.90;99.90
11666;DHT22;5889;51.350;6.708;2023-12-20T16:26:54;7.90;99.90
11666;DHT22;5889;51.350;6.708;2023-12-20T16:30:02;7.90;99.90